Eskdale, Utah
Current Conditions -  °F | °C
As of 10:52 AM on Wednesday 26 Nov 2014 (Local Time) from KMLF Reporting Station
Clear Clear  
Wind Chill: 50°   Ceiling: Unl
Heat Index: 50°   Visibility: 10mi
Dew Point: 24°   Wind: 12mph
Humidity: 36%   Direction: 190°S
Pressure: 30.45"   Gusts: NA
Location:  39.0932°N, 113.543°W
Report Text: KMLF 261752Z AUTO 19010KT 10SM CLR 10/M04 A3045 RMK AO2 SLP308 T01001044 10100 21044 50004 TSNO
Loading
Personal Weather Stations






























Interactive Weather Map New forecast layout! Learn more

10-Day Weather Forecast

Advertisements
Track Severe Weather on mobile